Time;durP1;ratioP1;P1;durP2;ratioP2;P2;SDS_P1;SDS_P2;PMS_P1;PMS_P2;Temp;Humidity;BMP_temperature;BMP_pressure;BME280_temperature;BME280_humidity;BME280_pressure;Samples;Min_cycle;Max_cycle;Signal;HPM_P1;HPM_P2
2022/02/16 07:11:35;;;;;;;3.53;0.83;;;10.30;99.90;;;;;;4969545;28;20218;-69
2022/02/16 07:14:03;;;;;;;0.70;0.50;;;10.40;99.90;;;;;;4965419;28;20655;-70
2022/02/16 07:16:30;;;;;;;0.80;0.50;;;10.40;99.90;;;;;;4954803;28;20204;-71
2022/02/16 07:18:57;;;;;;;0.57;0.50;;;10.40;99.90;;;;;;4956881;28;20235;-72
2022/02/16 07:21:26;;;;;;;1.00;0.60;;;10.40;99.90;;;;;;4960919;28;20558;-70
2022/02/16 07:23:53;;;;;;;2.10;0.37;;;10.50;99.90;;;;;;4973858;28;20213;-70
2022/02/16 07:26:20;;;;;;;1.13;0.40;;;10.60;99.90;;;;;;4964337;28;20204;-69
2022/02/16 07:28:49;;;;;;;0.50;0.40;;;10.60;99.90;;;;;;4954420;28;20212;-70
2022/02/16 07:31:16;;;;;;;0.60;0.33;;;10.60;99.90;;;;;;4954525;29;20208;-70
2022/02/16 07:33:42;;;;;;;1.20;0.67;;;10.70;99.90;;;;;;4954550;29;20208;-73
2022/02/16 07:36:09;;;;;;;0.87;0.30;;;10.80;99.90;;;;;;4954508;29;20212;-71
2022/02/16 07:38:36;;;;;;;0.70;0.40;;;10.80;99.90;;;;;;4963689;28;20231;-71
2022/02/16 07:41:03;;;;;;;0.40;0.20;;;10.90;99.90;;;;;;4973484;28;20214;-71
2022/02/16 07:43:30;;;;;;;1.60;0.40;;;10.80;99.90;;;;;;4973882;28;20214;-73
2022/02/16 07:45:58;;;;;;;0.37;0.20;;;10.90;99.90;;;;;;4973944;28;20211;-71
2022/02/16 07:48:25;;;;;;;0.80;0.40;;;10.90;99.90;;;;;;4971979;28;20223;-71
2022/02/16 07:50:52;;;;;;;0.40;0.40;;;10.90;99.90;;;;;;4965047;28;20564;-71
2022/02/16 07:53:19;;;;;;;0.30;0.30;;;10.90;99.90;;;;;;4954214;28;20212;-71
2022/02/16 07:55:46;;;;;;;0.47;0.40;;;10.90;99.90;;;;;;4965825;28;20200;-74
2022/02/16 07:58:13;;;;;;;0.40;0.30;;;11.00;99.90;;;;;;4973419;28;20701;-73
2022/02/16 08:00:40;;;;;;;0.57;0.40;;;11.00;99.90;;;;;;4973705;28;20210;-70
2022/02/16 08:03:08;;;;;;;0.70;0.53;;;11.00;99.90;;;;;;4973854;28;20227;-70
2022/02/16 08:05:36;;;;;;;1.20;0.40;;;11.00;99.90;;;;;;4974897;28;20203;-70
2022/02/16 08:08:03;;;;;;;0.63;0.40;;;11.10;99.90;;;;;;4964438;28;20228;-69
2022/02/16 08:10:30;;;;;;;0.57;0.40;;;11.10;99.90;;;;;;4957829;28;20215;-69
2022/02/16 08:12:58;;;;;;;0.50;0.33;;;11.10;99.90;;;;;;4957603;28;20578;-69
2022/02/16 08:15:26;;;;;;;0.53;0.30;;;11.10;99.90;;;;;;4969689;28;20200;-69
2022/02/16 08:17:53;;;;;;;0.30;0.30;;;11.10;99.90;;;;;;4976699;28;20667;-69
2022/02/16 08:20:22;;;;;;;0.60;0.47;;;11.20;99.90;;;;;;4976881;28;20574;-69
2022/02/16 08:22:49;;;;;;;0.40;0.30;;;11.30;99.90;;;;;;4976933;28;20203;-69
2022/02/16 08:25:16;;;;;;;0.40;0.30;;;11.30;99.90;;;;;;4976635;28;20211;-68
2022/02/16 08:27:42;;;;;;;0.30;0.30;;;11.30;99.90;;;;;;4976541;28;20227;-69
2022/02/16 08:30:11;;;;;;;1.80;0.30;;;11.30;99.90;;;;;;4976617;28;20207;-69
2022/02/16 08:32:38;;;;;;;0.40;0.40;;;11.30;99.90;;;;;;4976779;28;20218;-71
2022/02/16 08:35:07;;;;;;;2.30;0.60;;;11.30;99.90;;;;;;4976729;28;20207;-69
2022/02/16 08:37:35;;;;;;;0.57;0.40;;;11.30;99.90;;;;;;4966236;28;20271;-69
2022/02/16 08:40:02;;;;;;;0.60;0.40;;;11.30;99.90;;;;;;4973057;28;20203;-69
2022/02/16 08:42:29;;;;;;;0.40;0.40;;;11.40;99.90;;;;;;4973063;28;20215;-69
2022/02/16 08:44:58;;;;;;;0.43;0.33;;;11.40;99.90;;;;;;4956935;28;20222;-71
2022/02/16 08:47:25;;;;;;;0.60;0.50;;;11.50;99.90;;;;;;4956516;28;20671;-69
2022/02/16 08:49:52;;;;;;;0.67;0.40;;;11.40;99.90;;;;;;4956983;28;20218;-71
2022/02/16 08:52:19;;;;;;;2.57;0.47;;;11.50;99.90;;;;;;4956913;28;20238;-69
2022/02/16 08:54:47;;;;;;;0.30;0.20;;;11.50;99.90;;;;;;4960968;28;20554;-69
2022/02/16 08:57:14;;;;;;;0.90;0.40;;;11.50;99.90;;;;;;4975913;28;20234;-70
2022/02/16 08:59:41;;;;;;;2.40;0.40;;;11.50;99.90;;;;;;4976167;28;20207;-72
2022/02/16 09:02:08;;;;;;;2.00;0.90;;;11.50;99.90;;;;;;4976065;28;20669;-71
2022/02/16 09:04:35;;;;;;;0.60;0.40;;;11.60;99.90;;;;;;4971039;28;20408;-70
2022/02/16 09:09:47;;;;;;;0.67;0.30;;;11.60;99.90;;;;;;4974489;28;20222;-70
2022/02/16 09:12:14;;;;;;;0.60;0.40;;;11.50;99.90;;;;;;4974093;28;20207;-69
2022/02/16 09:14:41;;;;;;;0.63;0.40;;;11.50;99.90;;;;;;4973098;28;20533;-71
2022/02/16 09:17:08;;;;;;;0.80;0.40;;;11.60;99.90;;;;;;4973267;28;20235;-72
2022/02/16 09:19:34;;;;;;;0.40;0.30;;;11.70;99.90;;;;;;4974362;28;20241;-70
2022/02/16 09:22:01;;;;;;;0.60;0.30;;;11.70;99.90;;;;;;4973498;28;20214;-70
2022/02/16 09:24:29;;;;;;;0.30;0.30;;;11.70;99.90;;;;;;4973730;28;20302;-71
2022/02/16 09:26:57;;;;;;;0.40;0.40;;;11.60;99.90;;;;;;4973136;28;20230;-70
2022/02/16 09:29:24;;;;;;;0.50;0.30;;;11.70;99.90;;;;;;4974018;28;20573;-73
2022/02/16 09:31:52;;;;;;;0.40;0.30;;;11.70;99.90;;;;;;4974857;28;20660;-71
2022/02/16 09:34:20;;;;;;;0.60;0.43;;;11.70;99.90;;;;;;4974269;28;20221;-70
2022/02/16 09:36:47;;;;;;;0.70;0.40;;;11.70;99.90;;;;;;4974289;28;20235;-74
2022/02/16 09:39:14;;;;;;;2.53;0.50;;;11.80;99.90;;;;;;4975124;28;20235;-70
2022/02/16 09:41:43;;;;;;;1.70;0.40;;;11.80;99.90;;;;;;4974857;28;20327;-71
2022/02/16 09:44:13;;;;;;;0.50;0.40;;;11.90;99.90;;;;;;4975245;28;20299;-70
2022/02/16 09:46:40;;;;;;;0.60;0.30;;;11.80;99.90;;;;;;4974972;28;20234;-69
2022/02/16 09:49:07;;;;;;;0.50;0.30;;;11.90;99.90;;;;;;4974707;28;20215;-70
2022/02/16 09:51:34;;;;;;;0.30;0.30;;;11.90;99.90;;;;;;4974715;28;20222;-70
2022/02/16 09:54:01;;;;;;;0.43;0.33;;;11.90;99.90;;;;;;4968367;28;20298;-71
2022/02/16 09:56:28;;;;;;;0.40;0.40;;;11.90;99.90;;;;;;4975055;28;20207;-72
2022/02/16 09:58:55;;;;;;;0.70;0.47;;;12.00;99.90;;;;;;4974804;28;20235;-71
2022/02/16 10:01:23;;;;;;;0.70;0.60;;;12.00;99.90;;;;;;4974870;28;20577;-71
2022/02/16 10:04:00;;;;;;;1.30;0.67;;;12.00;99.90;;;;;;4974773;28;20211;-72
2022/02/16 10:06:38;;;;;;;1.03;0.73;;;12.00;99.90;;;;;;4974750;28;20218;-72
2022/02/16 10:09:07;;;;;;;0.70;0.50;;;12.00;99.90;;;;;;4975053;28;20207;-72
2022/02/16 10:11:34;;;;;;;1.53;0.80;;;12.00;99.90;;;;;;4974389;28;20211;-71
2022/02/16 10:14:16;;;;;;;3.77;1.00;;;12.00;99.90;;;;;;4974944;28;20207;-72
2022/02/16 10:16:44;;;;;;;2.07;0.80;;;12.20;99.90;;;;;;4974836;28;20227;-71
2022/02/16 10:19:11;;;;;;;2.43;0.80;;;12.20;99.90;;;;;;4972446;28;20234;-71
2022/02/16 10:21:38;;;;;;;1.10;0.70;;;12.30;99.90;;;;;;4965994;28;20203;-71
2022/02/16 10:24:19;;;;;;;2.87;1.30;;;12.40;99.90;;;;;;4974593;28;20203;-72
2022/02/16 10:26:51;;;;;;;1.60;1.10;;;12.30;99.90;;;;;;4974117;28;20761;-72
2022/02/16 10:29:19;;;;;;;1.87;1.00;;;12.40;99.90;;;;;;4974089;28;20208;-71
2022/02/16 10:31:47;;;;;;;1.40;1.07;;;12.40;99.90;;;;;;4974350;28;20204;-71
2022/02/16 10:34:15;;;;;;;2.10;0.93;;;12.40;99.90;;;;;;4974722;28;20218;-73
2022/02/16 10:36:42;;;;;;;2.10;1.10;;;12.40;99.90;;;;;;4974367;28;20226;-71
2022/02/16 10:39:11;;;;;;;3.10;1.70;;;12.50;99.90;;;;;;4956785;28;20231;-72
2022/02/16 10:41:44;;;;;;;4.93;1.27;;;12.50;99.90;;;;;;4954892;28;20667;-72
2022/02/16 10:44:17;;;;;;;5.30;1.50;;;12.70;99.90;;;;;;4954886;29;20212;-71
2022/02/16 10:46:44;;;;;;;2.70;1.50;;;12.70;99.90;;;;;;4955141;28;20262;-72
2022/02/16 10:49:14;;;;;;;2.80;1.70;;;12.90;99.90;;;;;;4954742;28;20643;-71
2022/02/16 10:51:43;;;;;;;2.93;1.53;;;12.90;99.90;;;;;;4954454;28;20214;-71
2022/02/16 10:54:16;;;;;;;3.70;1.57;;;13.00;99.90;;;;;;4954679;28;20557;-71
2022/02/16 10:56:44;;;;;;;3.73;1.50;;;12.90;99.90;;;;;;4954622;28;20630;-72
2022/02/16 10:59:11;;;;;;;5.87;1.47;;;12.90;99.90;;;;;;4954792;28;20240;-72
2022/02/16 11:01:40;;;;;;;2.93;1.20;;;12.80;99.90;;;;;;4954952;29;20208;-72
2022/02/16 11:04:08;;;;;;;2.97;1.10;;;12.80;99.90;;;;;;4954865;28;20208;-71
2022/02/16 11:06:42;;;;;;;2.07;1.20;;;12.70;99.90;;;;;;4954568;28;20224;-71
2022/02/16 11:09:14;;;;;;;5.13;1.13;;;12.60;99.90;;;;;;4954419;28;20219;-71
2022/02/16 11:11:41;;;;;;;2.70;0.80;;;12.50;99.90;;;;;;4954741;28;20216;-72
2022/02/16 11:14:09;;;;;;;2.83;0.80;;;12.60;99.90;;;;;;4959537;28;20770;-72
2022/02/16 11:16:36;;;;;;;3.13;1.10;;;12.50;99.90;;;;;;4973825;28;20231;-72
2022/02/16 11:19:20;;;;;;;1.63;0.73;;;12.50;99.90;;;;;;4973888;28;20235;-72
2022/02/16 11:22:00;;;;;;;2.37;0.80;;;12.50;99.90;;;;;;4973914;28;20218;-73
2022/02/16 11:24:35;;;;;;;6.23;0.80;;;12.50;99.90;;;;;;4974046;28;20207;-71
2022/02/16 11:27:27;;;;;;;3.47;1.40;;;12.40;99.90;;;;;;4973366;28;20223;-71
2022/02/16 11:29:55;;;;;;;4.83;1.20;;;12.30;99.90;;;;;;4973813;28;20223;-71
2022/02/16 11:32:25;;;;;;;6.33;1.13;;;12.30;99.90;;;;;;4974155;28;20211;-71
2022/02/16 11:35:16;;;;;;;4.90;1.00;;;12.40;99.90;;;;;;4973936;28;20208;-71
2022/02/16 11:37:46;;;;;;;2.93;0.93;;;12.40;99.90;;;;;;4973509;28;20228;-71
2022/02/16 11:40:13;;;;;;;4.33;1.33;;;12.50;99.90;;;;;;4974029;28;20234;-72
2022/02/16 11:42:53;;;;;;;12.57;2.57;;;12.60;99.90;;;;;;4957652;28;20222;-72
2022/02/16 11:45:21;;;;;;;5.47;1.20;;;12.70;99.90;;;;;;4957961;28;20211;-75
2022/02/16 11:47:53;;;;;;;9.20;1.50;;;12.90;99.90;;;;;;4957531;28;20224;-72
2022/02/16 11:50:35;;;;;;;4.07;1.37;;;13.00;99.90;;;;;;4957741;28;20290;-71
2022/02/16 11:53:05;;;;;;;7.67;2.03;;;13.20;99.90;;;;;;4957458;28;20682;-73
2022/02/16 11:55:34;;;;;;;6.50;1.33;;;13.30;99.90;;;;;;4957664;28;20227;-72
2022/02/16 11:58:14;;;;;;;9.03;1.80;;;13.30;99.90;;;;;;4969227;28;20256;-71
2022/02/16 12:00:42;;;;;;;3.43;1.20;;;13.30;99.90;;;;;;4976962;28;20209;-72
2022/02/16 12:03:24;;;;;;;7.70;1.40;;;13.40;99.90;;;;;;4976918;28;20212;-72
2022/02/16 12:06:00;;;;;;;8.13;1.10;;;13.60;99.90;;;;;;4977088;28;20203;-71
2022/02/16 12:08:30;;;;;;;4.33;0.83;;;13.60;99.90;;;;;;4972198;28;20231;-72
2022/02/16 12:11:03;;;;;;;5.13;1.00;;;13.80;99.90;;;;;;4956144;28;20758;-73
2022/02/16 12:13:34;;;;;;;5.10;1.13;;;14.00;99.90;;;;;;4961612;28;20204;-72
2022/02/16 12:16:04;;;;;;;6.90;1.00;;;14.00;99.90;;;;;;4956869;28;20675;-72
2022/02/16 12:18:32;;;;;;;6.60;1.17;;;14.00;99.90;;;;;;4969682;28;20231;-72
2022/02/16 12:20:59;;;;;;;3.60;1.00;;;13.80;99.90;;;;;;4971367;28;20207;-72
2022/02/16 12:23:29;;;;;;;8.57;1.20;;;14.00;99.90;;;;;;4974212;28;20210;-73
2022/02/16 12:26:08;;;;;;;4.60;0.90;;;14.00;99.90;;;;;;4974682;28;20606;-72
2022/02/16 12:28:47;;;;;;;6.87;0.93;;;13.90;99.90;;;;;;4973880;28;20230;-72
2022/02/16 12:31:15;;;;;;;8.63;1.10;;;13.90;99.90;;;;;;4976027;28;20210;-71
2022/02/16 12:33:42;;;;;;;6.43;1.03;;;13.90;99.90;;;;;;4975950;28;20211;-72
2022/02/16 12:36:09;;;;;;;7.13;1.40;;;13.90;99.90;;;;;;4965437;28;20199;-72
2022/02/16 12:38:38;;;;;;;2.43;0.70;;;14.00;99.90;;;;;;4975589;28;20250;-72
2022/02/16 12:41:08;;;;;;;7.13;1.13;;;14.00;99.90;;;;;;4975914;28;20203;-72
2022/02/16 12:43:35;;;;;;;4.20;1.03;;;13.90;99.90;;;;;;4975661;28;20262;-72
2022/02/16 12:46:02;;;;;;;6.50;0.70;;;13.90;99.90;;;;;;4975552;28;20207;-72
2022/02/16 12:48:28;;;;;;;6.20;1.27;;;13.90;99.90;;;;;;4975521;28;20710;-74
2022/02/16 12:51:02;;;;;;;5.57;0.90;;;13.90;99.90;;;;;;4974543;28;20211;-72
2022/02/16 12:53:37;;;;;;;5.33;1.03;;;14.00;99.90;;;;;;4964543;28;20212;-72
2022/02/16 12:56:10;;;;;;;4.80;0.90;;;14.00;99.90;;;;;;4956293;28;20210;-72
2022/02/16 12:58:39;;;;;;;2.60;0.90;;;14.20;99.90;;;;;;4956108;28;20228;-72
2022/02/16 13:01:06;;;;;;;3.07;0.70;;;14.20;99.90;;;;;;4956298;28;20345;-72
2022/02/16 13:03:34;;;;;;;4.30;0.90;;;14.20;99.90;;;;;;4956236;28;20207;-72
2022/02/16 13:06:03;;;;;;;3.67;0.73;;;14.20;99.90;;;;;;4966732;28;20203;-73
2022/02/16 13:08:30;;;;;;;6.47;1.00;;;14.00;99.90;;;;;;4956495;28;20228;-72
2022/02/16 13:10:59;;;;;;;7.20;1.27;;;14.00;99.90;;;;;;4963037;28;20211;-73
2022/02/16 13:13:27;;;;;;;2.93;0.93;;;14.00;99.90;;;;;;4975470;28;20629;-73
2022/02/16 13:15:55;;;;;;;4.67;0.97;;;13.80;99.90;;;;;;4955975;28;20208;-73
2022/02/16 13:18:30;;;;;;;6.53;0.87;;;13.90;99.90;;;;;;4955927;28;20224;-72
2022/02/16 13:21:07;;;;;;;2.77;1.00;;;14.00;99.90;;;;;;4962216;28;20207;-72
2022/02/16 13:23:34;;;;;;;9.87;1.30;;;14.20;99.90;;;;;;4960116;28;20544;-72
2022/02/16 13:26:07;;;;;;;7.10;1.10;;;14.20;99.90;;;;;;4958244;28;20287;-72
2022/02/16 13:28:34;;;;;;;8.57;1.20;;;14.30;99.90;;;;;;4975158;28;20228;-72
2022/02/16 13:31:16;;;;;;;9.17;1.90;;;14.10;99.90;;;;;;4975367;28;20219;-73
2022/02/16 13:33:55;;;;;;;7.23;1.20;;;14.20;99.90;;;;;;4975044;28;20207;-71
2022/02/16 13:36:26;;;;;;;4.70;0.93;;;14.30;99.90;;;;;;4974361;28;20609;-73
2022/02/16 13:39:17;;;;;;;9.90;1.00;;;14.30;99.90;;;;;;4974023;28;20233;-71
2022/02/16 13:41:53;;;;;;;7.73;1.37;;;14.20;99.90;;;;;;4974227;28;20206;-71
2022/02/16 13:44:25;;;;;;;9.10;2.07;;;14.30;99.90;;;;;;4972156;28;20199;-71
2022/02/16 13:46:53;;;;;;;10.50;1.33;;;14.30;99.90;;;;;;4966052;28;20232;-71
2022/02/16 13:49:23;;;;;;;5.90;0.97;;;14.40;99.90;;;;;;4955264;28;20218;-71
2022/02/16 13:51:51;;;;;;;9.90;1.63;;;14.20;99.90;;;;;;4969111;28;20207;-72
2022/02/16 13:54:20;;;;;;;7.03;1.37;;;14.20;99.90;;;;;;4974848;28;20203;-71
2022/02/16 13:56:54;;;;;;;6.87;1.40;;;14.20;99.90;;;;;;4974831;28;20590;-71
2022/02/16 13:59:21;;;;;;;6.73;1.10;;;14.30;99.90;;;;;;4974698;28;20322;-72
2022/02/16 14:02:08;;;;;;;8.03;1.07;;;14.30;99.90;;;;;;4972834;28;20207;-72
2022/02/16 14:04:35;;;;;;;9.80;1.47;;;14.30;99.90;;;;;;4963165;28;20206;-71
2022/02/16 14:07:03;;;;;;;5.30;1.60;;;14.30;99.90;;;;;;4972788;28;20732;-72
2022/02/16 14:09:30;;;;;;;8.13;1.43;;;14.30;99.90;;;;;;4974338;28;20333;-72
2022/02/16 14:11:58;;;;;;;4.07;0.90;;;14.10;99.90;;;;;;4973664;28;20408;-72
2022/02/16 14:14:25;;;;;;;5.83;1.27;;;14.10;99.90;;;;;;4973624;28;20258;-72
2022/02/16 14:16:52;;;;;;;10.37;1.40;;;14.10;99.90;;;;;;4974453;28;20230;-72
2022/02/16 14:19:25;;;;;;;8.40;1.40;;;14.10;99.90;;;;;;4974270;28;20231;-72
2022/02/16 14:21:54;;;;;;;7.53;1.43;;;14.10;99.90;;;;;;4974695;28;20223;-72
2022/02/16 14:24:22;;;;;;;5.60;1.07;;;14.10;99.90;;;;;;4974198;28;20621;-71
2022/02/16 14:26:49;;;;;;;8.80;1.37;;;14.00;99.90;;;;;;4974112;28;20706;-72
2022/02/16 14:29:17;;;;;;;11.30;1.57;;;14.00;99.90;;;;;;4973941;28;20207;-72
2022/02/16 14:31:44;;;;;;;3.67;1.00;;;14.10;99.90;;;;;;4974232;28;20548;-72
2022/02/16 14:34:11;;;;;;;11.93;1.17;;;13.90;99.90;;;;;;4974157;28;20207;-72
2022/02/16 14:36:39;;;;;;;11.23;1.20;;;13.90;99.90;;;;;;4973925;28;20708;-72
2022/02/16 14:39:07;;;;;;;3.03;0.87;;;13.90;99.90;;;;;;4974061;28;20298;-72
2022/02/16 14:41:34;;;;;;;9.60;1.60;;;13.90;99.90;;;;;;4973848;28;20213;-72
2022/02/16 14:44:01;;;;;;;9.10;2.53;;;14.00;99.90;;;;;;4974191;28;20684;-72
2022/02/16 14:46:30;;;;;;;9.67;1.53;;;14.00;99.90;;;;;;4974242;28;20233;-72
2022/02/16 14:48:58;;;;;;;8.60;1.20;;;13.90;99.90;;;;;;4973958;28;20662;-72
2022/02/16 14:51:27;;;;;;;6.07;1.40;;;13.80;99.90;;;;;;4974197;28;20214;-71
2022/02/16 14:53:54;;;;;;;12.43;1.50;;;13.80;99.90;;;;;;4974023;28;20218;-71
2022/02/16 14:56:22;;;;;;;7.13;1.47;;;13.70;99.90;;;;;;4973858;28;20210;-72
2022/02/16 14:58:48;;;;;;;4.67;1.47;;;13.60;99.90;;;;;;4974097;28;20577;-72
2022/02/16 15:01:15;;;;;;;3.93;1.07;;;13.60;99.90;;;;;;4974014;28;20235;-73
2022/02/16 15:03:44;;;;;;;7.13;1.73;;;13.60;99.90;;;;;;4974050;28;20692;-72
2022/02/16 15:06:11;;;;;;;8.93;2.03;;;13.50;99.90;;;;;;4974009;28;20533;-72
2022/02/16 15:08:37;;;;;;;4.30;1.00;;;13.60;99.90;;;;;;4973786;28;20218;-71
2022/02/16 15:11:06;;;;;;;7.93;1.40;;;13.60;99.90;;;;;;4973553;28;20214;-72
2022/02/16 15:13:33;;;;;;;3.37;1.37;;;13.50;99.90;;;;;;4974330;28;20211;-72
2022/02/16 15:16:00;;;;;;;6.63;1.40;;;13.50;99.90;;;;;;4976401;28;20214;-72
2022/02/16 15:18:27;;;;;;;8.83;1.07;;;13.40;99.90;;;;;;4978235;28;20594;-72
2022/02/16 15:20:55;;;;;;;8.03;1.30;;;13.40;99.90;;;;;;4977905;28;20238;-72
2022/02/16 15:23:22;;;;;;;6.47;1.20;;;13.30;99.90;;;;;;4977867;28;20310;-71
2022/02/16 15:25:49;;;;;;;11.93;3.40;;;13.30;99.90;;;;;;4977773;28;20207;-72
2022/02/16 15:28:16;;;;;;;3.87;1.40;;;13.40;99.90;;;;;;4977813;28;20697;-72
2022/02/16 15:30:45;;;;;;;7.37;1.17;;;13.30;99.90;;;;;;4977727;28;20215;-72
2022/02/16 15:33:12;;;;;;;7.70;1.50;;;13.30;99.90;;;;;;4978120;28;20211;-72
2022/02/16 15:35:40;;;;;;;8.67;1.40;;;13.40;99.90;;;;;;4977536;28;20214;-72
2022/02/16 15:38:09;;;;;;;8.10;1.90;;;13.30;99.90;;;;;;4977668;28;20249;-72
2022/02/16 15:40:36;;;;;;;8.63;2.70;;;13.30;99.90;;;;;;4977777;28;20245;-71
2022/02/16 15:43:04;;;;;;;5.57;1.93;;;13.20;99.90;;;;;;4977694;28;20234;-71
2022/02/16 15:45:31;;;;;;;3.90;0.70;;;13.10;99.90;;;;;;4958994;28;20667;-71
2022/02/16 15:47:59;;;;;;;7.37;1.20;;;13.00;99.90;;;;;;4957389;28;20711;-71
2022/02/16 15:50:26;;;;;;;2.20;0.93;;;12.90;99.90;;;;;;4958114;28;20214;-72
2022/02/16 15:52:53;;;;;;;3.20;1.17;;;12.80;99.90;;;;;;4957769;28;20208;-72
2022/02/16 15:55:22;;;;;;;4.00;1.47;;;12.70;99.90;;;;;;4958069;29;20208;-73
2022/02/16 15:57:49;;;;;;;4.00;1.10;;;12.60;99.90;;;;;;4957870;28;20224;-73
2022/02/16 16:00:17;;;;;;;5.03;1.10;;;12.60;99.90;;;;;;4957929;28;20242;-72
2022/02/16 16:02:44;;;;;;;5.53;1.07;;;12.60;99.90;;;;;;4957786;28;20693;-72
2022/02/16 16:05:11;;;;;;;3.20;0.80;;;12.60;99.90;;;;;;4957642;28;20664;-71
2022/02/16 16:07:38;;;;;;;5.00;1.50;;;12.50;99.90;;;;;;4957690;28;20234;-71
2022/02/16 16:10:07;;;;;;;2.87;0.90;;;12.50;99.90;;;;;;4962288;28;20211;-74
2022/02/16 16:12:36;;;;;;;1.33;0.50;;;12.50;99.90;;;;;;4957084;28;20612;-73
2022/02/16 16:15:03;;;;;;;1.10;0.50;;;12.50;99.90;;;;;;4955954;29;20667;-71
2022/02/16 16:17:30;;;;;;;3.07;0.60;;;12.50;99.90;;;;;;4956836;28;20235;-73
2022/02/16 16:19:57;;;;;;;2.47;0.60;;;12.50;99.90;;;;;;4957210;29;20224;-71
2022/02/16 16:22:23;;;;;;;3.20;0.60;;;12.50;99.90;;;;;;4957187;28;20212;-71
2022/02/16 16:24:52;;;;;;;2.73;1.07;;;12.60;99.90;;;;;;4956589;28;20208;-71
2022/02/16 16:27:19;;;;;;;2.53;0.63;;;12.50;99.90;;;;;;4956066;28;20725;-74
2022/02/16 16:29:47;;;;;;;2.43;0.80;;;12.60;99.90;;;;;;4956995;28;20212;-72
2022/02/16 16:32:14;;;;;;;1.63;0.60;;;12.60;99.90;;;;;;4956684;29;20685;-72
2022/02/16 16:34:41;;;;;;;2.87;1.33;;;12.60;99.90;;;;;;4957026;28;20226;-71
2022/02/16 16:37:07;;;;;;;2.13;0.93;;;12.50;99.90;;;;;;4956717;28;20228;-73
2022/02/16 16:39:34;;;;;;;4.13;0.70;;;12.50;99.90;;;;;;4956773;28;20216;-71
2022/02/16 16:42:03;;;;;;;3.73;0.70;;;12.40;99.90;;;;;;4956673;28;20682;-71
2022/02/16 16:44:31;;;;;;;1.47;0.60;;;12.40;99.90;;;;;;4956760;28;20678;-73
2022/02/16 16:46:59;;;;;;;2.57;0.33;;;12.40;99.90;;;;;;4956780;28;20232;-73
2022/02/16 16:49:26;;;;;;;0.63;0.40;;;12.40;99.90;;;;;;4957031;29;20222;-72
2022/02/16 16:51:53;;;;;;;0.70;0.47;;;12.40;99.90;;;;;;4956572;28;20578;-71
2022/02/16 16:54:20;;;;;;;2.00;0.60;;;12.40;99.90;;;;;;4956622;28;20208;-71
2022/02/16 16:56:47;;;;;;;3.70;0.57;;;12.40;99.90;;;;;;4956340;28;20228;-72
2022/02/16 16:59:16;;;;;;;2.50;0.50;;;12.30;99.90;;;;;;4956553;28;20716;-73
2022/02/16 17:01:43;;;;;;;0.40;0.40;;;12.40;99.90;;;;;;4956224;28;20306;-73
2022/02/16 17:04:12;;;;;;;1.37;0.73;;;12.40;99.90;;;;;;4956662;28;20212;-72
2022/02/16 17:06:40;;;;;;;1.10;0.70;;;12.40;99.90;;;;;;4956290;28;20239;-73
2022/02/16 17:09:08;;;;;;;2.07;0.90;;;12.40;99.90;;;;;;4955762;28;20298;-75
2022/02/16 17:11:35;;;;;;;1.13;0.70;;;12.40;99.90;;;;;;4956333;28;20211;-72
2022/02/16 17:14:02;;;;;;;0.77;0.67;;;12.40;99.90;;;;;;4956457;28;20204;-74
2022/02/16 17:16:29;;;;;;;0.97;0.77;;;12.50;99.90;;;;;;4956761;28;20208;-74
2022/02/16 17:18:56;;;;;;;2.43;0.90;;;12.60;99.90;;;;;;4956572;28;20567;-74
2022/02/16 17:21:25;;;;;;;4.17;1.00;;;12.60;99.90;;;;;;4956492;28;20240;-72
2022/02/16 17:23:53;;;;;;;1.43;1.00;;;12.60;99.90;;;;;;4955487;28;20208;-73
2022/02/16 17:26:20;;;;;;;6.60;1.20;;;12.70;99.90;;;;;;4955721;28;20211;-73
2022/02/16 17:28:47;;;;;;;2.17;1.40;;;12.70;99.90;;;;;;4956237;28;20208;-73
2022/02/16 17:31:14;;;;;;;1.60;1.00;;;12.80;99.90;;;;;;4956266;29;20212;-74
2022/02/16 17:33:40;;;;;;;1.57;0.90;;;12.80;99.90;;;;;;4956237;28;20303;-74
2022/02/16 17:36:08;;;;;;;4.80;1.00;;;12.80;99.90;;;;;;4955742;28;20673;-73
2022/02/16 17:38:36;;;;;;;2.10;0.80;;;12.80;99.90;;;;;;4954812;28;20239;-73
2022/02/16 17:41:03;;;;;;;2.30;1.10;;;12.80;99.90;;;;;;4955646;28;20232;-71
2022/02/16 17:43:30;;;;;;;1.53;1.00;;;12.90;99.90;;;;;;4954823;28;20681;-72
2022/02/16 17:45:57;;;;;;;1.87;1.00;;;13.00;99.90;;;;;;4954330;29;20622;-72
2022/02/16 17:48:24;;;;;;;1.80;0.90;;;12.90;99.90;;;;;;4956032;28;20235;-72
2022/02/16 17:50:51;;;;;;;1.37;1.00;;;12.90;99.90;;;;;;4955941;28;20690;-73
2022/02/16 17:53:20;;;;;;;3.63;1.07;;;12.80;99.90;;;;;;4955350;28;20215;-71
2022/02/16 17:55:49;;;;;;;2.87;0.80;;;12.80;99.90;;;;;;4955456;28;20212;-73
2022/02/16 17:58:16;;;;;;;3.10;0.73;;;12.80;99.90;;;;;;4955385;28;20278;-73
2022/02/16 18:00:43;;;;;;;1.63;0.70;;;12.90;99.90;;;;;;4955049;28;20238;-72
2022/02/16 18:03:10;;;;;;;1.60;1.00;;;12.90;99.90;;;;;;4955741;28;20705;-71
2022/02/16 18:05:40;;;;;;;2.57;0.80;;;12.90;99.90;;;;;;4955711;28;20215;-72
2022/02/16 18:08:07;;;;;;;2.77;0.83;;;12.90;99.90;;;;;;4955515;28;20323;-73
2022/02/16 18:10:34;;;;;;;2.47;1.03;;;12.90;99.90;;;;;;4955644;28;20224;-72
2022/02/16 18:13:02;;;;;;;1.20;0.73;;;13.00;99.90;;;;;;4955348;28;20216;-71
2022/02/16 18:15:29;;;;;;;2.13;0.80;;;13.00;99.90;;;;;;4955749;28;20302;-72
2022/02/16 18:17:57;;;;;;;1.80;0.70;;;13.00;99.90;;;;;;4955578;28;20314;-73
2022/02/16 18:20:24;;;;;;;1.83;1.00;;;13.00;99.90;;;;;;4955144;28;20242;-73
2022/02/16 18:22:50;;;;;;;2.60;0.80;;;12.90;99.90;;;;;;4955726;28;20315;-72
2022/02/16 18:25:17;;;;;;;1.47;0.70;;;12.90;99.90;;;;;;4955710;28;20208;-72
2022/02/16 18:27:44;;;;;;;2.93;0.70;;;12.90;99.90;;;;;;4955066;28;20654;-73
2022/02/16 18:30:13;;;;;;;0.73;0.43;;;12.80;99.90;;;;;;4955482;28;20668;-72
2022/02/16 18:32:41;;;;;;;1.50;0.80;;;12.80;99.90;;;;;;4955028;29;20208;-70
2022/02/16 18:35:08;;;;;;;1.40;0.70;;;12.80;99.90;;;;;;4954610;28;20361;-71
2022/02/16 18:37:36;;;;;;;0.63;0.53;;;12.80;99.90;;;;;;4954727;28;20776;-73
2022/02/16 18:40:03;;;;;;;1.03;0.50;;;12.80;99.90;;;;;;4955023;29;20258;-71
2022/02/16 18:42:32;;;;;;;0.80;0.60;;;12.80;99.90;;;;;;4954533;28;20733;-71
2022/02/16 18:44:58;;;;;;;0.70;0.47;;;12.70;99.90;;;;;;4955021;28;20244;-71
2022/02/16 18:47:27;;;;;;;1.63;0.70;;;12.70;99.90;;;;;;4954856;28;20238;-71
2022/02/16 18:49:53;;;;;;;1.43;0.50;;;12.70;99.90;;;;;;4954665;28;20551;-70
2022/02/16 18:52:20;;;;;;;1.90;0.60;;;12.70;99.90;;;;;;4954960;29;20220;-72
2022/02/16 18:54:47;;;;;;;0.77;0.40;;;12.70;99.90;;;;;;4955160;28;20214;-72
2022/02/16 18:57:14;;;;;;;1.33;0.57;;;12.70;99.90;;;;;;4954872;28;20243;-72
2022/02/16 18:59:41;;;;;;;1.10;0.40;;;12.70;99.90;;;;;;4954849;28;20207;-71
2022/02/16 19:02:08;;;;;;;1.97;0.43;;;12.70;99.90;;;;;;4954776;28;20323;-71
2022/02/16 19:04:36;;;;;;;1.00;0.73;;;12.70;99.90;;;;;;4954800;28;20212;-71
2022/02/16 19:07:03;;;;;;;0.40;0.30;;;12.70;99.90;;;;;;4954606;28;20232;-71
2022/02/16 19:09:31;;;;;;;2.53;0.40;;;12.70;99.90;;;;;;4955513;29;20556;-72
2022/02/16 19:11:58;;;;;;;0.93;0.77;;;12.70;99.90;;;;;;4954720;28;20298;-70
2022/02/16 19:14:24;;;;;;;0.70;0.40;;;12.70;99.90;;;;;;4954610;28;20204;-70
2022/02/16 19:16:52;;;;;;;0.77;0.40;;;12.70;99.90;;;;;;4954563;28;20224;-71
2022/02/16 19:19:19;;;;;;;1.77;0.30;;;12.70;99.90;;;;;;4954690;28;20656;-70
2022/02/16 19:21:50;;;;;;;1.10;0.33;;;12.70;99.90;;;;;;4954826;28;20258;-71
2022/02/16 19:24:17;;;;;;;0.57;0.20;;;12.70;99.90;;;;;;4954472;28;20298;-71
2022/02/16 19:26:44;;;;;;;1.03;0.50;;;12.70;99.90;;;;;;4954098;28;20315;-71
2022/02/16 19:29:12;;;;;;;0.97;0.30;;;12.70;99.90;;;;;;4954252;28;20207;-71
2022/02/16 19:31:39;;;;;;;0.60;0.30;;;12.80;99.90;;;;;;4954037;28;20234;-70
2022/02/16 19:34:07;;;;;;;0.43;0.40;;;12.80;99.90;;;;;;4953850;28;20676;-70
2022/02/16 19:36:34;;;;;;;0.73;0.43;;;12.80;99.90;;;;;;4953436;28;20227;-70
2022/02/16 19:39:03;;;;;;;1.10;0.40;;;12.80;99.90;;;;;;4954467;28;20216;-71
2022/02/16 19:41:29;;;;;;;0.97;0.70;;;12.80;99.90;;;;;;4954364;28;20238;-70
2022/02/16 19:43:57;;;;;;;2.20;0.30;;;12.80;99.90;;;;;;4954292;28;20208;-70
2022/02/16 19:46:25;;;;;;;0.53;0.40;;;12.80;99.90;;;;;;4954067;28;20212;-70
2022/02/16 19:48:51;;;;;;;0.40;0.30;;;12.90;99.90;;;;;;4953964;28;20214;-72
2022/02/16 19:51:19;;;;;;;0.40;0.30;;;12.90;99.90;;;;;;4954184;28;20208;-71
2022/02/16 19:53:46;;;;;;;1.10;0.40;;;12.90;99.90;;;;;;4953996;28;20259;-70
2022/02/16 19:56:14;;;;;;;1.57;0.50;;;12.90;99.90;;;;;;4954386;29;20204;-71
2022/02/16 19:58:41;;;;;;;0.93;0.40;;;12.90;99.90;;;;;;4954473;28;20205;-71
2022/02/16 20:01:08;;;;;;;1.20;1.10;;;12.90;99.90;;;;;;4954879;28;20231;-72
2022/02/16 20:03:35;;;;;;;0.30;0.30;;;12.90;99.90;;;;;;4957824;28;20220;-71
2022/02/16 20:06:02;;;;;;;0.53;0.43;;;12.90;99.90;;;;;;4957645;29;20208;-70